createdAt,value
2023-01-15T00:01:19.279Z,97.73
2023-01-15T00:03:49.911Z,97.83
2023-01-15T00:06:20.513Z,97.91
2023-01-15T00:08:51.096Z,97.98
2023-01-15T00:11:21.772Z,98.75
2023-01-15T00:13:52.379Z,98.17
2023-01-15T00:16:23.022Z,98.60
2023-01-15T00:18:53.627Z,98.60
2023-01-15T00:21:24.301Z,99.04
2023-01-15T00:23:54.975Z,98.15
2023-01-15T00:26:25.605Z,99.38
2023-01-15T00:28:56.239Z,98.30
2023-01-15T00:31:26.938Z,98.18
2023-01-15T00:33:57.464Z,97.91
2023-01-15T00:36:28.121Z,98.31
2023-01-15T00:38:58.744Z,99.07
2023-01-15T00:41:29.413Z,98.71
2023-01-15T00:43:59.998Z,98.68
2023-01-15T00:46:30.673Z,98.19
2023-01-15T00:49:01.281Z,97.79
2023-01-15T00:51:31.944Z,98.06
2023-01-15T00:54:02.550Z,97.58
2023-01-15T00:56:33.253Z,97.95
2023-01-15T00:59:03.940Z,97.84
2023-01-15T01:01:34.561Z,97.29
2023-01-15T01:04:05.119Z,96.90
2023-01-15T01:06:35.745Z,98.41
2023-01-15T01:09:06.381Z,97.69
2023-01-15T01:11:37.064Z,98.29
2023-01-15T01:14:07.698Z,98.06
2023-01-15T01:16:38.394Z,97.21
2023-01-15T01:19:09.055Z,98.00
2023-01-15T01:21:39.718Z,98.21
2023-01-15T01:24:10.472Z,97.61
2023-01-15T01:26:41.072Z,98.15
2023-01-15T01:29:11.703Z,97.38
2023-01-15T01:31:42.450Z,97.76
2023-01-15T01:34:13.091Z,97.64
2023-01-15T01:36:43.733Z,98.15
2023-01-15T01:39:14.378Z,98.05
2023-01-15T01:41:45.085Z,97.46
2023-01-15T01:44:15.711Z,96.73
2023-01-15T01:46:46.407Z,97.84
2023-01-15T01:49:17.063Z,97.58
2023-01-15T01:51:47.735Z,97.07
2023-01-15T01:54:18.452Z,96.84
2023-01-15T01:56:49.077Z,97.67
2023-01-15T01:59:19.717Z,97.15
2023-01-15T02:01:50.543Z,96.85
2023-01-15T02:04:21.081Z,97.78
2023-01-15T02:06:51.743Z,98.32
2023-01-15T02:09:22.383Z,97.80
2023-01-15T02:11:53.094Z,98.13
2023-01-15T02:14:23.723Z,97.68
2023-01-15T02:16:54.440Z,97.13
2023-01-15T02:19:25.072Z,96.95
2023-01-15T02:21:55.756Z,97.09
2023-01-15T02:24:26.424Z,97.04
2023-01-15T02:26:57.125Z,96.17
2023-01-15T02:29:27.781Z,96.81
2023-01-15T02:31:58.499Z,97.85
2023-01-15T02:34:29.134Z,97.12
2023-01-15T02:36:59.891Z,97.32
2023-01-15T02:39:30.499Z,96.55
2023-01-15T02:42:01.190Z,97.22
2023-01-15T02:44:31.902Z,96.53
2023-01-15T02:47:02.532Z,96.53
2023-01-15T02:49:33.162Z,96.61
2023-01-15T02:52:03.840Z,95.98
2023-01-15T02:54:34.491Z,95.90
2023-01-15T02:57:05.220Z,96.40
2023-01-15T02:59:35.855Z,96.57
2023-01-15T03:02:06.689Z,96.05
2023-01-15T03:04:37.158Z,96.41
2023-01-15T03:07:07.890Z,95.95
2023-01-15T03:09:38.509Z,96.12
2023-01-15T03:12:09.205Z,97.45
2023-01-15T03:14:39.859Z,98.06
2023-01-15T03:17:10.587Z,96.99
2023-01-15T03:19:41.204Z,97.59
2023-01-15T03:22:11.905Z,96.87
2023-01-15T03:24:42.585Z,96.87
2023-01-15T03:27:13.285Z,96.57
2023-01-15T03:29:43.986Z,96.85
2023-01-15T03:32:14.601Z,96.64
2023-01-15T03:34:45.275Z,97.11
2023-01-15T03:37:15.981Z,95.88
2023-01-15T03:39:46.627Z,95.71
2023-01-15T03:42:17.348Z,95.89
2023-01-15T03:44:47.990Z,97.24
2023-01-15T03:47:18.733Z,96.20
2023-01-15T03:49:49.364Z,96.23
2023-01-15T03:52:20.069Z,95.68
2023-01-15T03:54:50.713Z,96.61
2023-01-15T03:57:20.874Z,100.00
2023-01-15T03:59:51.239Z,96.67
2023-01-15T04:02:21.878Z,95.52
2023-01-15T04:04:52.512Z,95.69
2023-01-15T04:07:23.193Z,95.67
2023-01-15T04:09:53.853Z,96.17
2023-01-15T04:12:24.645Z,95.73
2023-01-15T04:14:55.220Z,95.19
2023-01-15T04:17:25.916Z,95.45
2023-01-15T04:19:56.597Z,96.14
2023-01-15T04:22:27.310Z,95.56
2023-01-15T04:24:58.019Z,94.88
2023-01-15T04:27:28.761Z,95.01
2023-01-15T04:29:59.436Z,96.03
2023-01-15T04:32:30.172Z,96.12
2023-01-15T04:35:00.873Z,96.50
2023-01-15T04:37:31.660Z,96.73
2023-01-15T04:40:01.992Z,95.87
2023-01-15T04:42:32.719Z,95.78
2023-01-15T04:45:03.406Z,95.56
2023-01-15T04:47:34.150Z,95.47
2023-01-15T04:50:04.991Z,96.68
2023-01-15T04:52:35.564Z,96.20
2023-01-15T04:55:06.250Z,95.75
2023-01-15T04:57:37.030Z,95.87
2023-01-15T05:00:07.690Z,95.51
2023-01-15T05:02:38.619Z,95.40
2023-01-15T05:05:09.108Z,95.09
2023-01-15T05:07:39.961Z,95.53
2023-01-15T05:10:10.587Z,95.02
2023-01-15T05:12:41.280Z,96.14
2023-01-15T05:15:11.963Z,96.08
2023-01-15T05:17:42.695Z,96.56
2023-01-15T05:20:13.539Z,96.02
2023-01-15T05:22:44.249Z,96.63
2023-01-15T05:25:14.927Z,95.66
2023-01-15T05:27:45.434Z,96.15
2023-01-15T05:30:16.187Z,95.51
2023-01-15T05:32:46.616Z,95.20
2023-01-15T05:35:17.370Z,94.86
2023-01-15T05:37:48.197Z,95.08
2023-01-15T05:40:18.969Z,95.99
2023-01-15T05:42:49.802Z,94.51
2023-01-15T05:45:20.281Z,95.40
2023-01-15T05:47:51.068Z,95.08
2023-01-15T05:50:21.752Z,96.23
2023-01-15T05:52:52.504Z,95.40
2023-01-15T05:55:23.304Z,95.69
2023-01-15T05:57:53.928Z,95.75
2023-01-15T06:00:24.574Z,95.13
2023-01-15T06:02:55.352Z,95.74
2023-01-15T06:05:26.030Z,95.14
2023-01-15T06:07:56.755Z,95.48
2023-01-15T06:10:27.507Z,95.68
2023-01-15T06:12:58.191Z,95.56
2023-01-15T06:15:28.824Z,96.47
2023-01-15T06:17:59.575Z,96.64
2023-01-15T06:20:30.257Z,96.49
2023-01-15T06:23:01.006Z,96.61
2023-01-15T06:25:31.694Z,96.73
2023-01-15T06:28:02.460Z,96.41
2023-01-15T06:30:33.139Z,97.42
2023-01-15T06:33:03.282Z,97.67
2023-01-15T06:35:33.946Z,96.46
2023-01-15T06:38:04.690Z,95.68
2023-01-15T06:40:35.463Z,95.38
2023-01-15T06:43:06.146Z,94.21
2023-01-15T06:45:36.835Z,93.80
2023-01-15T06:48:07.600Z,94.30
2023-01-15T06:50:38.291Z,93.29
2023-01-15T06:53:09.160Z,93.24
2023-01-15T06:55:39.739Z,92.77
2023-01-15T06:58:10.514Z,93.15
2023-01-15T07:00:41.321Z,93.01
2023-01-15T07:03:11.938Z,93.66
2023-01-15T07:05:42.735Z,92.44
2023-01-15T07:08:13.368Z,94.17
2023-01-15T07:10:44.196Z,93.12
2023-01-15T07:13:14.860Z,93.41
2023-01-15T07:15:45.550Z,93.53
2023-01-15T07:18:16.291Z,93.28
2023-01-15T07:20:46.998Z,93.36
2023-01-15T07:23:17.753Z,93.03
2023-01-15T07:25:48.467Z,93.26
2023-01-15T07:28:19.250Z,93.11
2023-01-15T07:30:49.955Z,94.64
2023-01-15T07:33:20.700Z,93.92
2023-01-15T07:35:51.401Z,94.40
2023-01-15T07:38:22.275Z,95.54
2023-01-15T07:40:52.881Z,93.81
2023-01-15T07:43:23.359Z,95.10
2023-01-15T07:45:54.130Z,95.65
2023-01-15T07:48:24.856Z,95.67
2023-01-15T07:50:55.594Z,95.16
2023-01-15T07:53:26.379Z,95.50
2023-01-15T07:55:57.037Z,96.24
2023-01-15T07:58:27.820Z,95.99
2023-01-15T08:00:58.612Z,96.44
2023-01-15T08:03:29.276Z,96.14
2023-01-15T08:06:00.004Z,96.04
2023-01-15T08:08:30.766Z,95.22
2023-01-15T08:11:01.534Z,94.60
2023-01-15T08:13:32.362Z,94.75
2023-01-15T08:16:02.961Z,94.09
2023-01-15T08:18:33.810Z,92.90
2023-01-15T08:21:04.428Z,92.66
2023-01-15T08:23:35.281Z,92.48
2023-01-15T08:26:05.889Z,92.52
2023-01-15T08:28:36.652Z,92.35
2023-01-15T08:31:07.361Z,91.52
2023-01-15T08:33:38.095Z,91.44
2023-01-15T08:36:08.827Z,92.23
2023-01-15T08:38:39.295Z,92.79
2023-01-15T08:41:10.051Z,92.40
2023-01-15T08:43:40.868Z,92.58
2023-01-15T08:46:11.599Z,92.81
2023-01-15T08:48:42.442Z,93.10
2023-01-15T08:51:13.011Z,93.21
2023-01-15T08:53:43.782Z,94.19
2023-01-15T08:56:14.507Z,94.17
2023-01-15T08:58:45.289Z,93.44
2023-01-15T09:01:16.322Z,94.42
2023-01-15T09:03:46.775Z,94.54
2023-01-15T09:06:17.502Z,95.63
2023-01-15T09:08:48.340Z,94.17
2023-01-15T09:11:19.058Z,94.21
2023-01-15T09:13:49.768Z,93.96
2023-01-15T09:16:20.498Z,94.79
2023-01-15T09:18:51.212Z,94.60
2023-01-15T09:21:21.942Z,94.28
2023-01-15T09:23:52.668Z,95.27
2023-01-15T09:26:23.458Z,94.67
2023-01-15T09:28:54.197Z,93.91
2023-01-15T09:31:24.917Z,93.56
2023-01-15T09:33:55.657Z,93.04
2023-01-15T09:36:26.318Z,93.66
2023-01-15T09:38:57.064Z,94.27
2023-01-15T09:41:27.556Z,93.57
2023-01-15T09:43:57.990Z,93.49
2023-01-15T09:46:28.688Z,93.21
2023-01-15T09:48:59.338Z,94.36
2023-01-15T09:51:30.031Z,93.85
2023-01-15T09:54:00.887Z,93.64
2023-01-15T09:56:31.466Z,94.27
2023-01-15T09:59:02.174Z,93.97
2023-01-15T10:01:32.745Z,94.42
2023-01-15T10:04:03.412Z,92.39
2023-01-15T10:06:34.023Z,91.40
2023-01-15T10:09:04.749Z,90.86
2023-01-15T10:11:35.444Z,92.41
2023-01-15T10:14:06.209Z,91.98
2023-01-15T10:16:36.877Z,91.82
2023-01-15T10:19:07.607Z,91.61
2023-01-15T10:21:38.294Z,91.24
2023-01-15T10:24:09.008Z,91.39
2023-01-15T10:26:39.728Z,92.51
2023-01-15T10:29:10.491Z,92.86
2023-01-15T10:31:41.138Z,91.17
2023-01-15T10:34:11.872Z,91.84
2023-01-15T10:36:42.550Z,90.86
2023-01-15T10:39:13.263Z,91.67
2023-01-15T10:41:43.982Z,91.03
2023-01-15T10:44:14.701Z,91.69
2023-01-15T10:46:45.386Z,90.40
2023-01-15T10:49:16.122Z,89.86
2023-01-15T10:51:46.871Z,89.92
2023-01-15T10:54:17.525Z,90.33
2023-01-15T10:56:48.199Z,90.86
2023-01-15T10:59:18.943Z,89.98
2023-01-15T11:01:49.863Z,89.41
2023-01-15T11:04:20.319Z,88.63
2023-01-15T11:06:51.070Z,87.96
2023-01-15T11:09:21.761Z,89.83
2023-01-15T11:11:52.438Z,89.33
2023-01-15T11:14:23.143Z,88.90
2023-01-15T11:16:53.847Z,88.64
2023-01-15T11:19:24.516Z,89.03
2023-01-15T11:21:55.352Z,88.12
2023-01-15T11:24:25.911Z,88.36
2023-01-15T11:26:56.574Z,88.55
2023-01-15T11:29:27.291Z,88.81
2023-01-15T11:31:57.994Z,89.30
2023-01-15T11:34:28.651Z,88.28
2023-01-15T11:36:59.321Z,88.03
2023-01-15T11:39:39.439Z,88.89
2023-01-15T11:42:05.743Z,88.42
2023-01-15T11:44:31.391Z,89.77
2023-01-15T11:47:07.071Z,89.40
2023-01-15T11:49:37.978Z,89.49
2023-01-15T11:52:03.527Z,90.37
2023-01-15T11:54:33.757Z,89.91
2023-01-15T11:57:04.463Z,90.60
2023-01-15T11:59:37.061Z,90.31
2023-01-15T12:02:09.552Z,89.96
2023-01-15T12:09:38.036Z,89.49
2023-01-15T12:12:08.639Z,89.82
2023-01-15T12:14:39.352Z,90.57
2023-01-15T12:17:10.199Z,89.45
2023-01-15T12:19:40.701Z,89.71
2023-01-15T12:22:11.401Z,90.40
2023-01-15T12:24:42.089Z,89.60
2023-01-15T12:27:12.799Z,89.56
2023-01-15T12:29:43.483Z,90.02
2023-01-15T12:32:15.838Z,88.21
2023-01-15T12:34:44.833Z,88.13
2023-01-15T12:37:15.556Z,88.05
2023-01-15T12:39:46.198Z,87.52
2023-01-15T12:42:16.943Z,88.61
2023-01-15T12:44:47.692Z,89.36
2023-01-15T12:47:18.240Z,88.61
2023-01-15T12:49:48.908Z,89.41
2023-01-15T12:52:19.592Z,90.97
2023-01-15T12:54:50.258Z,93.73
2023-01-15T12:57:20.982Z,91.35
2023-01-15T12:59:51.650Z,91.48
2023-01-15T13:02:22.409Z,91.07
2023-01-15T13:04:53.176Z,90.39
2023-01-15T13:07:23.732Z,92.04
2023-01-15T13:09:54.453Z,90.10
2023-01-15T13:12:25.220Z,90.50
2023-01-15T13:14:55.912Z,91.38
2023-01-15T13:17:26.610Z,90.74
2023-01-15T13:19:59.262Z,89.81
2023-01-15T13:22:27.701Z,89.52
2023-01-15T13:24:58.384Z,89.27
2023-01-15T13:27:29.199Z,89.11
2023-01-15T13:29:59.793Z,89.55
2023-01-15T13:32:30.536Z,90.52
2023-01-15T13:35:01.241Z,90.29
2023-01-15T13:37:31.992Z,90.31
2023-01-15T13:40:02.719Z,91.65
2023-01-15T13:42:33.588Z,90.66
2023-01-15T13:45:04.179Z,91.56
2023-01-15T13:47:34.893Z,90.99
2023-01-15T13:50:05.614Z,91.76
2023-01-15T13:52:36.339Z,91.49
2023-01-15T13:55:07.489Z,92.82
2023-01-15T13:57:37.748Z,93.02
2023-01-15T14:00:08.438Z,92.98
2023-01-15T14:02:39.266Z,95.47
2023-01-15T14:05:09.833Z,94.23
2023-01-15T14:07:40.639Z,96.39
2023-01-15T14:10:11.299Z,96.11
2023-01-15T14:12:41.990Z,94.85
2023-01-15T14:15:12.631Z,94.95
2023-01-15T14:17:43.303Z,94.15
2023-01-15T14:20:13.984Z,94.65
2023-01-15T14:22:44.679Z,94.89
2023-01-15T14:25:15.387Z,94.75
2023-01-15T14:27:46.086Z,93.83
2023-01-15T14:30:16.793Z,94.34
2023-01-15T14:32:49.407Z,94.06
2023-01-15T14:35:18.166Z,95.00
2023-01-15T14:37:48.951Z,94.44
2023-01-15T14:40:19.591Z,94.90
2023-01-15T14:42:50.315Z,94.41
2023-01-15T14:45:21.002Z,95.25
2023-01-15T14:47:51.786Z,94.73
2023-01-15T14:50:22.342Z,94.79
2023-01-15T14:52:53.084Z,94.96
2023-01-15T14:55:23.779Z,94.56
2023-01-15T14:57:54.543Z,94.36
2023-01-15T15:00:25.198Z,94.19
2023-01-15T15:02:55.892Z,94.91
2023-01-15T15:05:26.527Z,94.53
2023-01-15T15:07:57.249Z,93.91
2023-01-15T15:10:27.917Z,94.76
2023-01-15T15:12:58.352Z,93.84
2023-01-15T15:15:29.024Z,94.51
2023-01-15T15:17:59.693Z,94.73
2023-01-15T15:20:30.381Z,94.20
2023-01-15T15:23:02.403Z,94.57
2023-01-15T15:25:31.834Z,94.16
2023-01-15T15:28:02.544Z,96.26
2023-01-15T15:30:33.320Z,95.70
2023-01-15T15:33:03.948Z,96.87
2023-01-15T15:35:34.671Z,98.44
2023-01-15T15:38:05.452Z,98.59
2023-01-15T15:40:36.117Z,98.77
2023-01-15T15:43:06.810Z,99.52
2023-01-15T15:45:37.530Z,98.43
2023-01-15T15:48:08.194Z,96.95
2023-01-15T15:50:38.922Z,97.00
2023-01-15T15:53:09.627Z,97.52
2023-01-15T15:55:40.387Z,96.76
2023-01-15T15:58:11.095Z,97.58
2023-01-15T16:00:41.880Z,100.00
2023-01-15T16:03:12.632Z,99.90
2023-01-15T16:05:43.360Z,99.75
2023-01-15T16:08:14.090Z,100.00
2023-01-15T16:10:44.869Z,100.00
2023-01-15T16:13:15.597Z,99.11
2023-01-15T16:15:46.373Z,99.40
2023-01-15T16:18:17.209Z,98.94
2023-01-15T16:20:47.846Z,99.80
2023-01-15T16:23:18.660Z,100.00
2023-01-15T16:25:49.357Z,99.82
2023-01-15T16:28:20.111Z,100.00
2023-01-15T16:30:50.883Z,100.00
2023-01-15T16:33:21.590Z,100.00
2023-01-15T16:35:52.367Z,100.00
2023-01-15T16:38:23.182Z,100.00
2023-01-15T16:40:53.860Z,100.00
2023-01-15T16:43:24.629Z,100.00
2023-01-15T16:45:55.492Z,100.00
2023-01-15T16:48:26.110Z,100.00
2023-01-15T16:50:56.866Z,100.00
2023-01-15T16:53:27.571Z,100.00
2023-01-15T16:55:58.337Z,100.00
2023-01-15T16:58:29.029Z,100.00
2023-01-15T17:00:59.816Z,100.00
2023-01-15T17:03:30.481Z,100.00
2023-01-15T17:06:01.215Z,100.00
2023-01-15T17:08:31.930Z,100.00
2023-01-15T17:11:02.698Z,100.00
2023-01-15T17:13:33.392Z,100.00
2023-01-15T17:16:04.383Z,100.00
2023-01-15T17:18:34.826Z,100.00
2023-01-15T17:21:05.600Z,100.00
2023-01-15T17:23:36.276Z,100.00
2023-01-15T17:26:06.992Z,100.00
2023-01-15T17:28:37.700Z,100.00
2023-01-15T17:31:08.516Z,100.00
2023-01-15T17:33:39.150Z,100.00
2023-01-15T17:36:09.879Z,100.00
2023-01-15T17:38:40.592Z,100.00
2023-01-15T17:41:11.327Z,100.00
2023-01-15T17:43:42.049Z,100.00
2023-01-15T17:46:12.888Z,100.00
2023-01-15T17:48:43.501Z,100.00
2023-01-15T17:51:14.235Z,100.00
2023-01-15T17:53:44.958Z,100.00
2023-01-15T17:56:15.689Z,100.00
2023-01-15T17:58:46.386Z,100.00
2023-01-15T18:01:17.546Z,100.00
2023-01-15T18:03:47.919Z,100.00
2023-01-15T18:06:18.673Z,100.00
2023-01-15T18:08:49.293Z,100.00
2023-01-15T18:11:20.036Z,100.00
2023-01-15T18:13:50.734Z,100.00
2023-01-15T18:16:21.577Z,100.00
2023-01-15T18:18:52.224Z,100.00
2023-01-15T18:21:22.923Z,100.00
2023-01-15T18:23:53.636Z,100.00
2023-01-15T18:26:24.402Z,100.00
2023-01-15T18:28:55.116Z,100.00
2023-01-15T18:31:25.934Z,100.00
2023-01-15T18:33:56.617Z,100.00
2023-01-15T18:36:27.308Z,100.00
2023-01-15T18:38:58.083Z,99.92
2023-01-15T18:41:28.732Z,100.00
2023-01-15T18:43:59.595Z,100.00
2023-01-15T18:46:30.397Z,100.00
2023-01-15T18:49:00.898Z,100.00
2023-01-15T18:51:31.667Z,100.00
2023-01-15T18:54:02.348Z,100.00
2023-01-15T18:56:33.109Z,100.00
2023-01-15T18:59:03.816Z,100.00
2023-01-15T19:01:34.751Z,100.00
2023-01-15T19:04:05.299Z,100.00
2023-01-15T19:06:36.017Z,100.00
2023-01-15T19:09:06.737Z,100.00
2023-01-15T19:11:37.519Z,100.00
2023-01-15T19:14:08.194Z,100.00
2023-01-15T19:16:38.949Z,100.00
2023-01-15T19:19:09.646Z,100.00
2023-01-15T19:21:40.480Z,100.00
2023-01-15T19:24:11.111Z,100.00
2023-01-15T19:26:41.848Z,99.80
2023-01-15T19:29:12.559Z,100.00
2023-01-15T19:31:43.369Z,99.76
2023-01-15T19:34:32.622Z,99.74
2023-01-15T19:36:44.773Z,99.55
2023-01-15T19:39:17.575Z,99.52
2023-01-15T19:41:46.198Z,99.26
2023-01-15T19:44:16.911Z,99.55
2023-01-15T19:46:47.746Z,99.31
2023-01-15T19:49:18.370Z,99.80
2023-01-15T19:51:49.087Z,99.45
2023-01-15T19:54:19.926Z,99.67
2023-01-15T19:56:50.534Z,99.60
2023-01-15T19:59:21.244Z,100.00
2023-01-15T20:01:52.089Z,99.97
2023-01-15T20:04:22.686Z,100.00
2023-01-15T20:06:53.993Z,99.87
2023-01-15T20:09:24.126Z,99.65
2023-01-15T20:11:54.845Z,99.65
2023-01-15T20:14:25.574Z,99.69
2023-01-15T20:16:56.330Z,99.40
2023-01-15T20:19:27.000Z,98.87
2023-01-15T20:21:57.735Z,99.80
2023-01-15T20:24:28.455Z,100.00
2023-01-15T20:26:58.858Z,99.88
2023-01-15T20:29:29.564Z,99.05
2023-01-15T20:32:00.119Z,99.42
2023-01-15T20:34:30.721Z,99.15
2023-01-15T20:37:02.197Z,98.78
2023-01-15T20:39:32.189Z,98.53
2023-01-15T20:42:02.939Z,99.08
2023-01-15T20:44:33.652Z,98.71
2023-01-15T20:47:04.426Z,98.46
2023-01-15T20:49:35.090Z,98.92
2023-01-15T20:52:05.854Z,99.02
2023-01-15T20:54:36.620Z,98.17
2023-01-15T20:57:07.273Z,99.39
2023-01-15T20:59:37.985Z,98.92
2023-01-15T21:02:08.753Z,98.57
2023-01-15T21:04:39.416Z,98.37
2023-01-15T21:07:10.159Z,99.00
2023-01-15T21:09:40.897Z,99.65
2023-01-15T21:12:11.604Z,99.03
2023-01-15T21:14:42.308Z,98.77
2023-01-15T21:17:13.148Z,98.38
2023-01-15T21:19:43.765Z,98.38
2023-01-15T21:22:14.530Z,99.88
2023-01-15T21:24:44.947Z,98.94
2023-01-15T21:27:15.694Z,98.46
2023-01-15T21:29:46.419Z,98.11
2023-01-15T21:32:17.180Z,98.37
2023-01-15T21:34:47.875Z,97.23
2023-01-15T21:37:18.628Z,97.77
2023-01-15T21:39:49.353Z,98.14
2023-01-15T21:42:20.109Z,97.69
2023-01-15T21:44:50.827Z,96.88
2023-01-15T21:47:21.618Z,96.18
2023-01-15T21:49:52.289Z,96.36
2023-01-15T21:52:23.060Z,96.49
2023-01-15T21:54:53.769Z,97.50
2023-01-15T21:57:24.546Z,96.25
2023-01-15T21:59:55.309Z,96.06
2023-01-15T22:02:26.212Z,95.99
2023-01-15T22:04:56.740Z,95.48
2023-01-15T22:07:27.488Z,95.46
2023-01-15T22:09:58.222Z,94.82
2023-01-15T22:12:28.970Z,96.15
2023-01-15T22:14:59.176Z,100.00
2023-01-15T22:17:29.892Z,97.77
2023-01-15T22:20:00.591Z,96.81
2023-01-15T22:22:31.338Z,96.59
2023-01-15T22:25:02.135Z,96.56
2023-01-15T22:27:32.814Z,96.06
2023-01-15T22:30:03.542Z,95.87
2023-01-15T22:32:34.314Z,96.19
2023-01-15T22:35:05.042Z,96.29
2023-01-15T22:37:35.819Z,96.16
2023-01-15T22:40:06.651Z,96.90
2023-01-15T22:42:37.334Z,97.10
2023-01-15T22:45:08.087Z,98.31
2023-01-15T22:47:39.004Z,98.93
2023-01-15T22:50:09.598Z,98.95
2023-01-15T22:52:40.400Z,99.44
2023-01-15T22:55:11.115Z,99.07
2023-01-15T22:57:41.880Z,99.45
2023-01-15T23:00:12.612Z,100.00
2023-01-15T23:02:43.415Z,100.00
2023-01-15T23:05:14.189Z,100.00
2023-01-15T23:07:44.904Z,100.00
2023-01-15T23:10:15.626Z,99.41
2023-01-15T23:12:46.409Z,99.93
2023-01-15T23:15:17.129Z,99.74
2023-01-15T23:17:47.926Z,98.94
2023-01-15T23:20:18.644Z,99.01
2023-01-15T23:22:49.433Z,98.87
2023-01-15T23:25:20.091Z,98.56
2023-01-15T23:27:50.853Z,98.22
2023-01-15T23:30:21.578Z,98.57
2023-01-15T23:32:52.333Z,98.78
2023-01-15T23:35:23.038Z,98.84
2023-01-15T23:37:53.808Z,99.03
2023-01-15T23:40:24.511Z,99.06
2023-01-15T23:42:55.257Z,99.43
2023-01-15T23:45:25.956Z,98.91
2023-01-15T23:47:56.816Z,98.37
2023-01-15T23:50:27.431Z,98.78
2023-01-15T23:52:58.167Z,98.54
2023-01-15T23:55:28.884Z,98.49
2023-01-15T23:57:59.639Z,98.82
